createdAt,value
2022-11-13T00:01:37.838Z,35.57
2022-11-13T00:03:30.687Z,31.53
2022-11-13T00:05:23.941Z,31.70
2022-11-13T00:07:15.718Z,34.90
2022-11-13T00:09:07.087Z,30.17
2022-11-13T00:11:03.199Z,32.70
2022-11-13T00:12:56.034Z,32.83
2022-11-13T00:14:47.400Z,30.93
2022-11-13T00:16:38.890Z,30.87
2022-11-13T00:18:31.230Z,31.23
2022-11-13T00:20:24.548Z,31.33
2022-11-13T00:22:16.561Z,29.97
2022-11-13T00:24:09.112Z,31.23
2022-11-13T00:26:06.007Z,30.63
2022-11-13T00:27:57.843Z,31.37
2022-11-13T00:29:49.339Z,32.47
2022-11-13T00:31:40.938Z,34.43
2022-11-13T00:34:01.819Z,33.50
2022-11-13T00:35:45.696Z,36.37
2022-11-13T00:37:37.542Z,36.83
2022-11-13T00:39:29.106Z,35.03
2022-11-13T00:41:21.082Z,34.37
2022-11-13T00:43:12.758Z,38.20
2022-11-13T00:45:04.218Z,35.73
2022-11-13T00:46:55.564Z,35.20
2022-11-13T00:48:47.107Z,34.80
2022-11-13T00:50:38.817Z,41.07
2022-11-13T00:52:32.244Z,38.03
2022-11-13T00:54:24.009Z,36.50
2022-11-13T00:56:15.782Z,38.03
2022-11-13T00:58:07.422Z,36.87
2022-11-13T00:59:58.794Z,33.90
2022-11-13T01:01:50.364Z,33.73
2022-11-13T01:03:42.200Z,31.83
2022-11-13T01:05:37.300Z,31.60
2022-11-13T01:07:28.647Z,34.70
2022-11-13T01:09:21.449Z,33.13
2022-11-13T01:11:14.892Z,32.67
2022-11-13T01:13:06.546Z,32.13
2022-11-13T01:14:58.268Z,34.33
2022-11-13T01:16:50.005Z,32.63
2022-11-13T01:18:42.746Z,32.07
2022-11-13T01:20:34.408Z,33.03
2022-11-13T01:22:25.987Z,29.73
2022-11-13T01:24:17.515Z,34.60
2022-11-13T01:26:14.727Z,28.03
2022-11-13T01:28:06.359Z,29.07
2022-11-13T01:29:57.806Z,29.27
2022-11-13T01:31:49.304Z,26.97
2022-11-13T01:33:40.836Z,28.47
2022-11-13T01:35:32.286Z,28.67
2022-11-13T01:37:23.714Z,24.37
2022-11-13T01:39:15.279Z,27.87
2022-11-13T01:41:07.913Z,26.53
2022-11-13T01:43:00.715Z,25.33
2022-11-13T01:44:54.525Z,26.30
2022-11-13T01:46:48.572Z,26.67
2022-11-13T01:48:41.826Z,26.23
2022-11-13T01:50:33.775Z,24.33
2022-11-13T01:52:28.296Z,27.80
2022-11-13T01:54:23.513Z,22.83
2022-11-13T01:56:16.952Z,23.60
2022-11-13T01:58:11.688Z,25.10
2022-11-13T02:00:08.166Z,23.57
2022-11-13T02:01:59.953Z,23.83
2022-11-13T02:03:51.662Z,25.77
2022-11-13T02:05:43.259Z,24.73
2022-11-13T02:07:35.183Z,24.60
2022-11-13T02:09:29.985Z,22.60
2022-11-13T02:11:21.948Z,24.13
2022-11-13T02:13:15.526Z,22.33
2022-11-13T02:15:08.479Z,24.73
2022-11-13T02:17:03.256Z,23.17
2022-11-13T02:18:55.515Z,19.77
2022-11-13T02:20:57.339Z,20.57
2022-11-13T02:22:57.742Z,21.43
2022-11-13T02:24:54.687Z,22.03
2022-11-13T02:26:46.856Z,20.47
2022-11-13T02:28:38.406Z,18.87
2022-11-13T02:30:31.784Z,18.70
2022-11-13T02:32:23.148Z,19.80
2022-11-13T02:34:14.682Z,20.83
2022-11-13T02:36:09.681Z,20.40
2022-11-13T02:38:03.154Z,16.60
2022-11-13T02:39:56.236Z,18.40
2022-11-13T02:41:47.933Z,20.30
2022-11-13T02:43:39.571Z,18.30
2022-11-13T02:45:30.951Z,20.97
2022-11-13T02:47:22.416Z,17.27
2022-11-13T02:49:14.210Z,19.30
2022-11-13T02:51:05.988Z,20.57
2022-11-13T02:52:57.749Z,18.50
2022-11-13T02:54:49.634Z,19.90
2022-11-13T02:56:42.529Z,17.63
2022-11-13T02:58:34.344Z,20.63
2022-11-13T03:00:26.418Z,19.40
2022-11-13T03:02:18.230Z,17.93
2022-11-13T03:04:09.740Z,18.70
2022-11-13T03:06:01.128Z,18.73
2022-11-13T03:07:52.616Z,17.70
2022-11-13T03:09:44.485Z,17.13
2022-11-13T03:11:36.226Z,18.43
2022-11-13T03:13:29.333Z,16.87
2022-11-13T03:15:21.063Z,16.80
2022-11-13T03:17:13.027Z,17.50
2022-11-13T03:19:05.019Z,19.47
2022-11-13T03:20:56.444Z,19.43
2022-11-13T03:22:47.964Z,19.83
2022-11-13T03:24:39.388Z,18.67
2022-11-13T03:26:30.766Z,15.53
2022-11-13T03:28:22.300Z,20.77
2022-11-13T03:30:15.269Z,18.40
2022-11-13T03:32:07.316Z,19.17
2022-11-13T03:33:59.175Z,19.70
2022-11-13T03:35:50.749Z,20.48
2022-11-13T03:37:42.206Z,19.93
2022-11-13T03:39:33.536Z,21.23
2022-11-13T03:41:25.070Z,21.53
2022-11-13T03:43:16.943Z,22.27
2022-11-13T03:45:09.122Z,18.37
2022-11-13T03:47:02.104Z,19.83
2022-11-13T03:48:53.818Z,19.43
2022-11-13T03:50:47.048Z,20.38
2022-11-13T03:52:38.593Z,18.73
2022-11-13T03:54:30.188Z,19.73
2022-11-13T03:56:21.748Z,18.73
2022-11-13T03:58:13.309Z,20.47
2022-11-13T04:00:06.086Z,20.13
2022-11-13T04:01:57.533Z,18.30
2022-11-13T04:03:50.377Z,19.60
2022-11-13T04:05:43.664Z,20.77
2022-11-13T04:07:35.099Z,19.90
2022-11-13T04:09:26.510Z,18.20
2022-11-13T04:11:17.932Z,18.05
2022-11-13T04:13:09.744Z,17.27
2022-11-13T04:15:01.175Z,17.80
2022-11-13T04:16:52.720Z,18.20
2022-11-13T04:18:44.191Z,17.23
2022-11-13T04:20:37.015Z,18.30
2022-11-13T04:22:28.703Z,19.33
2022-11-13T04:24:20.113Z,16.63
2022-11-13T04:26:11.593Z,17.77
2022-11-13T04:28:03.385Z,18.03
2022-11-13T04:29:54.920Z,17.17
2022-11-13T04:31:46.334Z,18.40
2022-11-13T04:33:37.794Z,18.20
2022-11-13T04:35:29.301Z,17.23
2022-11-13T04:37:22.235Z,19.17
2022-11-13T04:39:13.956Z,17.70
2022-11-13T04:41:22.252Z,15.25
2022-11-13T04:43:14.113Z,17.50
2022-11-13T04:45:06.861Z,18.52
2022-11-13T04:46:58.523Z,15.70
2022-11-13T04:48:49.968Z,17.67
2022-11-13T04:50:41.516Z,18.35
2022-11-13T04:52:34.343Z,15.23
2022-11-13T04:54:28.890Z,17.10
2022-11-13T04:56:20.663Z,16.17
2022-11-13T04:58:12.100Z,12.90
2022-11-13T05:00:05.297Z,14.95
2022-11-13T05:01:57.026Z,15.65
2022-11-13T05:03:48.925Z,14.82
2022-11-13T05:05:40.479Z,15.27
2022-11-13T05:07:31.899Z,16.42
2022-11-13T05:09:24.755Z,15.50
2022-11-13T05:11:16.452Z,16.00
2022-11-13T05:13:07.892Z,15.07
2022-11-13T05:14:59.418Z,14.68
2022-11-13T05:16:51.671Z,14.90
2022-11-13T05:18:43.402Z,13.48
2022-11-13T05:20:34.845Z,14.88
2022-11-13T05:22:26.199Z,14.60
2022-11-13T05:24:17.655Z,16.17
2022-11-13T05:26:13.061Z,14.60
2022-11-13T05:28:04.726Z,14.82
2022-11-13T05:29:56.186Z,16.73
2022-11-13T05:31:47.924Z,16.23
2022-11-13T05:33:40.341Z,15.43
2022-11-13T05:35:31.924Z,15.02
2022-11-13T05:37:23.607Z,16.00
2022-11-13T05:39:15.232Z,14.00
2022-11-13T05:41:08.743Z,15.70
2022-11-13T05:43:01.749Z,15.82
2022-11-13T05:44:53.497Z,13.85
2022-11-13T05:46:45.125Z,14.40
2022-11-13T05:48:36.626Z,14.35
2022-11-13T05:50:28.419Z,16.25
2022-11-13T05:52:19.943Z,15.55
2022-11-13T05:54:12.306Z,15.32
2022-11-13T05:56:04.355Z,14.88
2022-11-13T05:57:56.160Z,15.43
2022-11-13T05:59:48.984Z,15.90
2022-11-13T06:01:41.611Z,16.73
2022-11-13T06:03:33.295Z,16.15
2022-11-13T06:05:24.734Z,15.27
2022-11-13T06:07:16.469Z,20.42
2022-11-13T06:09:08.586Z,33.97
2022-11-13T06:11:01.282Z,18.40
2022-11-13T06:12:52.771Z,24.57
2022-11-13T06:14:44.832Z,17.65
2022-11-13T06:16:39.528Z,16.45
2022-11-13T06:18:31.524Z,16.67
2022-11-13T06:20:23.811Z,18.20
2022-11-13T06:22:15.531Z,16.67
2022-11-13T06:24:08.239Z,15.90
2022-11-13T06:26:03.717Z,16.10
2022-11-13T06:27:55.491Z,17.47
2022-11-13T06:29:47.134Z,16.07
2022-11-13T06:31:40.432Z,16.23
2022-11-13T06:33:32.042Z,15.98
2022-11-13T06:35:23.910Z,17.33
2022-11-13T06:37:15.596Z,16.95
2022-11-13T06:39:08.599Z,18.53
2022-11-13T06:40:59.395Z,21.17
2022-11-13T06:42:51.209Z,16.97
2022-11-13T06:44:42.643Z,17.38
2022-11-13T06:46:34.369Z,16.05
2022-11-13T06:48:28.230Z,15.07
2022-11-13T06:50:19.815Z,16.17
2022-11-13T06:52:11.431Z,14.20
2022-11-13T06:54:02.942Z,15.13
2022-11-13T06:55:54.611Z,18.17
2022-11-13T06:57:46.043Z,13.07
2022-11-13T06:59:37.826Z,12.73
2022-11-13T07:01:29.632Z,11.70
2022-11-13T07:03:23.144Z,12.57
2022-11-13T07:05:16.215Z,12.67
2022-11-13T07:07:08.359Z,12.03
2022-11-13T07:09:00.458Z,12.93
2022-11-13T07:10:56.366Z,15.10
2022-11-13T07:12:53.476Z,13.53
2022-11-13T07:14:46.400Z,13.37
2022-11-13T07:17:04.228Z,11.60
2022-11-13T07:18:53.685Z,12.30
2022-11-13T07:20:47.075Z,11.07
2022-11-13T07:22:38.594Z,10.83
2022-11-13T07:24:29.867Z,11.27
2022-11-13T07:26:21.655Z,13.77
2022-11-13T07:28:13.370Z,10.50
2022-11-13T07:30:05.624Z,11.43
2022-11-13T07:31:57.200Z,12.63
2022-11-13T07:33:50.014Z,11.67
2022-11-13T07:35:41.599Z,10.23
2022-11-13T07:37:34.419Z,11.73
2022-11-13T07:39:26.203Z,10.07
2022-11-13T07:41:17.838Z,26.40
2022-11-13T07:43:10.010Z,16.07
2022-11-13T07:45:01.947Z,23.30
2022-11-13T07:46:53.692Z,15.70
2022-11-13T07:48:44.999Z,10.80
2022-11-13T07:50:38.090Z,9.80
2022-11-13T07:52:29.756Z,10.77
2022-11-13T07:54:22.972Z,10.60
2022-11-13T07:56:20.244Z,12.47
2022-11-13T07:58:16.231Z,19.80
2022-11-13T08:00:10.981Z,9.27
2022-11-13T08:02:07.512Z,11.93
2022-11-13T08:03:59.537Z,9.23
2022-11-13T08:05:51.022Z,11.17
2022-11-13T08:07:45.099Z,9.90
2022-11-13T08:09:41.515Z,10.50
2022-11-13T08:11:33.342Z,9.00
2022-11-13T08:13:24.962Z,11.80
2022-11-13T08:15:16.848Z,10.97
2022-11-13T08:17:08.451Z,10.23
2022-11-13T08:18:59.802Z,10.70
2022-11-13T08:20:51.374Z,10.23
2022-11-13T08:22:42.841Z,9.10
2022-11-13T08:24:34.430Z,8.97
2022-11-13T08:26:27.485Z,9.20
2022-11-13T08:28:19.403Z,9.20
2022-11-13T08:30:12.038Z,8.50
2022-11-13T08:32:04.065Z,8.97
2022-11-13T08:33:55.970Z,9.50
2022-11-13T08:35:54.688Z,10.10
2022-11-13T08:37:46.160Z,10.43
2022-11-13T08:39:37.868Z,9.37
2022-11-13T08:41:30.981Z,8.43
2022-11-13T08:43:22.760Z,9.07
2022-11-13T08:45:14.191Z,8.50
2022-11-13T08:47:05.981Z,8.93
2022-11-13T08:48:57.618Z,9.53
2022-11-13T08:50:53.373Z,9.13
2022-11-13T08:52:45.228Z,8.87
2022-11-13T08:54:37.006Z,10.97
2022-11-13T08:56:29.830Z,10.23
2022-11-13T08:58:21.284Z,10.00
2022-11-13T09:00:13.535Z,9.77
2022-11-13T09:02:05.844Z,10.17
2022-11-13T09:03:59.135Z,9.47
2022-11-13T09:05:50.787Z,10.27
2022-11-13T09:07:42.244Z,10.30
2022-11-13T09:09:34.445Z,10.87
2022-11-13T09:11:27.728Z,11.57
2022-11-13T09:13:20.631Z,12.87
2022-11-13T09:15:13.265Z,11.43
2022-11-13T09:17:05.350Z,11.50
2022-11-13T09:18:57.284Z,9.53
2022-11-13T09:20:48.752Z,11.77
2022-11-13T09:22:40.330Z,11.73
2022-11-13T09:24:31.796Z,11.30
2022-11-13T09:26:23.288Z,11.57
2022-11-13T09:28:15.113Z,13.30
2022-11-13T09:30:09.460Z,10.30
2022-11-13T09:32:01.189Z,11.87
2022-11-13T09:33:52.587Z,12.23
2022-11-13T09:35:44.721Z,12.57
2022-11-13T09:37:36.527Z,11.20
2022-11-13T09:39:28.567Z,12.53
2022-11-13T09:41:24.289Z,12.17
2022-11-13T09:43:25.456Z,12.93
2022-11-13T09:45:18.998Z,12.67
2022-11-13T09:47:14.054Z,12.30
2022-11-13T09:49:14.820Z,11.93
2022-11-13T09:51:13.266Z,14.13
2022-11-13T09:53:05.738Z,11.07
2022-11-13T09:54:57.301Z,12.13
2022-11-13T09:56:56.876Z,12.83
2022-11-13T09:58:52.402Z,10.93
2022-11-13T10:00:45.432Z,12.10
2022-11-13T10:02:48.355Z,11.23
2022-11-13T10:04:54.379Z,12.33
2022-11-13T10:06:59.494Z,12.40
2022-11-13T10:08:56.879Z,13.00
2022-11-13T10:10:57.055Z,11.10
2022-11-13T10:12:52.232Z,11.83
2022-11-13T10:14:47.379Z,11.17
2022-11-13T10:16:45.007Z,11.03
2022-11-13T10:18:38.700Z,11.07
2022-11-13T10:20:37.149Z,10.93
2022-11-13T10:22:35.120Z,10.30
2022-11-13T10:24:28.967Z,12.17
2022-11-13T10:26:24.569Z,11.63
2022-11-13T10:28:50.241Z,13.27
2022-11-13T10:30:32.273Z,12.33
2022-11-13T10:32:27.924Z,12.20
2022-11-13T10:34:21.187Z,11.67
2022-11-13T10:36:22.096Z,12.13
2022-11-13T10:38:21.966Z,11.43
2022-11-13T10:40:23.976Z,13.00
2022-11-13T10:42:23.317Z,12.43
2022-11-13T10:44:30.682Z,12.50
2022-11-13T10:46:24.608Z,10.13
2022-11-13T10:48:26.598Z,11.13
2022-11-13T10:50:22.577Z,10.83
2022-11-13T10:52:19.795Z,10.27
2022-11-13T10:54:33.024Z,10.63
2022-11-13T10:56:29.444Z,10.57
2022-11-13T10:58:21.397Z,16.53
2022-11-13T11:00:25.567Z,12.17
2022-11-13T11:02:19.703Z,10.50
2022-11-13T11:04:15.928Z,12.63
2022-11-13T11:06:07.971Z,11.63
2022-11-13T11:08:00.045Z,14.20
2022-11-13T11:09:52.822Z,12.53
2022-11-13T11:12:15.563Z,12.17
2022-11-13T11:14:18.992Z,12.23
2022-11-13T11:16:15.649Z,12.13
2022-11-13T11:18:16.441Z,14.37
2022-11-13T11:20:21.332Z,14.37
2022-11-13T11:22:17.037Z,13.43
2022-11-13T11:24:18.019Z,12.53
2022-11-13T11:26:14.512Z,13.60
2022-11-13T11:28:28.768Z,15.13
2022-11-13T11:30:23.159Z,13.83
2022-11-13T11:32:19.933Z,14.37
2022-11-13T11:34:19.799Z,14.40
2022-11-13T11:36:23.786Z,12.20
2022-11-13T11:38:23.567Z,13.80
2022-11-13T11:40:23.019Z,14.77
2022-11-13T11:42:23.526Z,14.93
2022-11-13T11:44:22.200Z,16.67
2022-11-13T11:46:15.291Z,13.70
2022-11-13T11:48:13.577Z,13.67
2022-11-13T11:50:08.244Z,14.90
2022-11-13T11:52:15.919Z,14.40
2022-11-13T11:54:22.006Z,14.57
2022-11-13T11:56:29.287Z,15.20
2022-11-13T11:58:34.208Z,15.30
2022-11-13T12:00:28.981Z,14.40
2022-11-13T12:02:54.795Z,14.37
2022-11-13T12:05:02.425Z,15.57
2022-11-13T12:07:06.882Z,16.30
2022-11-13T12:09:09.742Z,15.23
2022-11-13T12:11:08.198Z,16.13
2022-11-13T12:13:13.189Z,17.43
2022-11-13T12:15:10.252Z,15.17
2022-11-13T12:17:16.732Z,15.53
2022-11-13T12:19:18.013Z,15.27
2022-11-13T12:21:23.778Z,15.50
2022-11-13T12:23:33.510Z,18.33
2022-11-13T12:25:30.713Z,17.77
2022-11-13T12:27:31.834Z,17.73
2022-11-13T12:29:40.761Z,18.60
2022-11-13T12:31:54.839Z,17.10
2022-11-13T12:33:58.226Z,17.23
2022-11-13T12:35:54.621Z,15.53
2022-11-13T12:37:53.194Z,15.57
2022-11-13T12:39:52.357Z,13.97
2022-11-13T12:41:50.389Z,12.97
2022-11-13T12:44:18.777Z,14.07
2022-11-13T12:46:12.338Z,16.43
2022-11-13T12:48:10.393Z,12.83
2022-11-13T12:50:04.783Z,13.50
2022-11-13T12:51:58.600Z,16.57
2022-11-13T12:53:52.773Z,14.80
2022-11-13T12:56:00.013Z,14.10
2022-11-13T12:57:51.959Z,13.30
2022-11-13T12:59:46.571Z,14.50
2022-11-13T13:01:46.541Z,16.07
2022-11-13T13:03:50.906Z,16.13
2022-11-13T13:06:04.651Z,16.03
2022-11-13T13:08:24.504Z,16.23
2022-11-13T13:10:23.303Z,14.20
2022-11-13T13:12:23.405Z,15.97
2022-11-13T13:14:31.746Z,13.47
2022-11-13T13:16:26.702Z,13.97
2022-11-13T13:18:28.547Z,14.83
2022-11-13T13:20:34.215Z,16.57
2022-11-13T13:22:28.593Z,15.10
2022-11-13T13:24:30.523Z,17.27
2022-11-13T13:26:25.890Z,16.93
2022-11-13T13:28:24.080Z,18.23
2022-11-13T13:30:22.464Z,15.50
2022-11-13T13:32:21.197Z,16.90
2022-11-13T13:34:23.647Z,16.83
2022-11-13T13:36:24.489Z,16.03
2022-11-13T13:38:22.816Z,16.67
2022-11-13T13:40:30.705Z,15.93
2022-11-13T13:42:40.347Z,19.93
2022-11-13T13:44:45.237Z,19.57
2022-11-13T13:46:37.715Z,17.03
2022-11-13T13:48:32.053Z,19.93
2022-11-13T13:50:26.722Z,19.67
2022-11-13T13:52:24.788Z,19.17
2022-11-13T13:54:19.727Z,19.00
2022-11-13T13:56:14.414Z,17.20
2022-11-13T13:58:10.202Z,18.43
2022-11-13T14:00:04.465Z,19.87
2022-11-13T14:01:58.400Z,20.17
2022-11-13T14:03:50.537Z,21.33
2022-11-13T14:05:42.558Z,20.60
2022-11-13T14:07:35.792Z,21.47
2022-11-13T14:09:29.378Z,20.33
2022-11-13T14:11:26.766Z,23.60
2022-11-13T14:13:25.840Z,27.07
2022-11-13T14:15:30.597Z,31.30
2022-11-13T14:17:26.177Z,29.73
2022-11-13T14:19:18.289Z,28.20
2022-11-13T14:21:16.997Z,29.93
2022-11-13T14:23:12.127Z,28.33
2022-11-13T14:25:04.015Z,29.03
2022-11-13T14:26:57.721Z,32.17
2022-11-13T14:28:55.478Z,26.60
2022-11-13T14:30:54.759Z,33.30
2022-11-13T14:32:47.385Z,31.30
2022-11-13T14:34:43.599Z,31.50
2022-11-13T14:36:37.140Z,31.93
2022-11-13T14:38:32.572Z,33.13
2022-11-13T14:40:27.027Z,33.00
2022-11-13T14:42:21.322Z,31.33
2022-11-13T14:44:13.296Z,34.20
2022-11-13T14:46:07.855Z,34.23
2022-11-13T14:48:02.035Z,35.03
2022-11-13T14:49:53.904Z,33.73
2022-11-13T14:51:56.445Z,34.23
2022-11-13T14:53:59.225Z,35.30
2022-11-13T14:55:53.560Z,37.27
2022-11-13T14:57:49.703Z,33.07
2022-11-13T14:59:43.733Z,37.43
2022-11-13T15:01:36.910Z,34.57
2022-11-13T15:03:29.129Z,35.17
2022-11-13T15:05:20.990Z,38.80
2022-11-13T15:07:28.087Z,36.97
2022-11-13T15:09:19.475Z,37.60
2022-11-13T15:11:14.597Z,36.83
2022-11-13T15:13:12.786Z,37.40
2022-11-13T15:15:04.992Z,38.10
2022-11-13T15:17:00.074Z,38.20
2022-11-13T15:18:54.406Z,35.30
2022-11-13T15:20:46.834Z,37.57
2022-11-13T15:22:39.994Z,35.73
2022-11-13T15:24:31.489Z,36.77
2022-11-13T15:26:24.007Z,32.83
2022-11-13T15:28:15.617Z,38.00
2022-11-13T15:30:07.808Z,38.90
2022-11-13T15:32:00.745Z,35.63
2022-11-13T15:33:52.267Z,37.57
2022-11-13T15:35:44.076Z,37.63
2022-11-13T15:37:35.626Z,36.80
2022-11-13T15:39:27.352Z,36.77
2022-11-13T15:41:21.581Z,36.97
2022-11-13T15:43:21.194Z,39.90
2022-11-13T15:45:15.756Z,41.33
2022-11-13T15:47:28.492Z,42.70
2022-11-13T15:49:20.235Z,41.60
2022-11-13T15:51:19.188Z,41.30
2022-11-13T15:53:13.041Z,40.27
2022-11-13T15:55:08.013Z,41.57
2022-11-13T15:56:59.645Z,41.77
2022-11-13T15:58:51.349Z,38.23
2022-11-13T16:00:43.105Z,41.47
2022-11-13T16:02:36.236Z,41.67
2022-11-13T16:04:50.507Z,42.63
2022-11-13T16:06:40.405Z,43.67
2022-11-13T16:08:32.448Z,41.70
2022-11-13T16:10:25.844Z,42.30
2022-11-13T16:12:18.057Z,45.40
2022-11-13T16:14:09.708Z,43.13
2022-11-13T16:16:02.073Z,47.27
2022-11-13T16:17:57.862Z,48.47
2022-11-13T16:19:52.767Z,45.13
2022-11-13T16:21:44.745Z,43.80
2022-11-13T16:23:36.396Z,45.40
2022-11-13T16:25:27.896Z,48.53
2022-11-13T16:27:27.354Z,45.77
2022-11-13T16:29:22.203Z,46.83
2022-11-13T16:31:14.043Z,45.73
2022-11-13T16:33:09.215Z,50.23
2022-11-13T16:35:00.811Z,45.73
2022-11-13T16:36:53.162Z,49.80
2022-11-13T16:38:44.909Z,48.07
2022-11-13T16:40:36.676Z,50.60
2022-11-13T16:42:30.956Z,50.43
2022-11-13T16:44:22.975Z,48.37
2022-11-13T16:46:22.053Z,53.10
2022-11-13T16:48:16.396Z,53.83
2022-11-13T16:50:14.807Z,52.90
2022-11-13T16:52:06.454Z,51.70
2022-11-13T16:53:58.276Z,52.90
2022-11-13T16:55:50.166Z,55.37
2022-11-13T16:57:41.990Z,56.97
2022-11-13T16:59:34.141Z,54.67
2022-11-13T17:01:26.751Z,57.33
2022-11-13T17:03:19.903Z,51.03
2022-11-13T17:05:13.966Z,52.83
2022-11-13T17:07:05.441Z,54.80
2022-11-13T17:08:58.692Z,56.10
2022-11-13T17:10:57.700Z,53.50
2022-11-13T17:12:52.777Z,58.27
2022-11-13T17:14:44.935Z,54.97
2022-11-13T17:16:36.469Z,61.47
2022-11-13T17:18:29.545Z,59.17
2022-11-13T17:20:21.172Z,57.03
2022-11-13T17:22:14.266Z,56.80
2022-11-13T17:24:06.755Z,57.17
2022-11-13T17:25:58.535Z,53.83
2022-11-13T17:27:50.008Z,58.50
2022-11-13T17:29:41.473Z,59.67
2022-11-13T17:31:32.961Z,59.57
2022-11-13T17:33:24.472Z,60.20
2022-11-13T17:35:17.997Z,62.00
2022-11-13T17:37:09.472Z,59.40
2022-11-13T17:39:00.929Z,60.00
2022-11-13T17:40:53.040Z,60.10
2022-11-13T17:42:44.775Z,61.83
2022-11-13T17:44:36.177Z,57.07
2022-11-13T17:46:27.813Z,55.97
2022-11-13T17:48:19.617Z,56.40
2022-11-13T17:50:11.539Z,57.30
2022-11-13T17:52:04.729Z,63.13
2022-11-13T17:53:57.974Z,60.30
2022-11-13T17:55:54.864Z,65.93
2022-11-13T17:57:46.296Z,64.07
2022-11-13T17:59:37.676Z,61.20
2022-11-13T18:01:31.439Z,61.43
2022-11-13T18:03:23.301Z,59.67
2022-11-13T18:05:15.025Z,55.70
2022-11-13T18:07:07.849Z,56.80
2022-11-13T18:08:59.538Z,60.17
2022-11-13T18:10:50.947Z,59.37
2022-11-13T18:12:42.400Z,57.17
2022-11-13T18:14:34.029Z,59.90
2022-11-13T18:16:27.480Z,64.83
2022-11-13T18:18:19.185Z,66.73
2022-11-13T18:20:11.223Z,68.00
2022-11-13T18:22:02.916Z,66.53
2022-11-13T18:24:00.179Z,69.27
2022-11-13T18:25:52.156Z,71.97
2022-11-13T18:27:44.082Z,78.87
2022-11-13T18:29:35.569Z,74.73
2022-11-13T18:31:27.242Z,75.43
2022-11-13T18:33:18.788Z,80.70
2022-11-13T18:35:10.540Z,78.73
2022-11-13T18:37:02.639Z,72.90
2022-11-13T18:38:54.141Z,76.73
2022-11-13T18:40:47.169Z,70.67
2022-11-13T18:42:38.788Z,69.20
2022-11-13T18:44:30.262Z,65.97
2022-11-13T18:46:23.142Z,61.33
2022-11-13T18:48:14.701Z,65.10
2022-11-13T18:50:06.640Z,58.20
2022-11-13T18:51:58.342Z,58.57
2022-11-13T18:53:51.010Z,59.70
2022-11-13T18:55:42.515Z,56.70
2022-11-13T18:57:35.703Z,57.07
2022-11-13T18:59:27.699Z,53.53
2022-11-13T19:01:23.066Z,54.40
2022-11-13T19:03:14.962Z,53.30
2022-11-13T19:05:07.181Z,56.37
2022-11-13T19:06:58.664Z,52.87
2022-11-13T19:08:56.041Z,50.00
2022-11-13T19:10:47.739Z,49.63
2022-11-13T19:12:40.700Z,49.70
2022-11-13T19:14:32.434Z,50.53
2022-11-13T19:16:25.928Z,54.23
2022-11-13T19:18:17.323Z,51.20
2022-11-13T19:20:10.585Z,52.15
2022-11-13T19:22:02.130Z,54.67
2022-11-13T19:23:53.767Z,53.77
2022-11-13T19:25:48.804Z,57.00
2022-11-13T19:27:41.557Z,52.63
2022-11-13T19:29:33.185Z,61.03
2022-11-13T19:31:26.360Z,54.97
2022-11-13T19:33:17.855Z,62.80
2022-11-13T19:35:09.692Z,60.80
2022-11-13T19:37:01.417Z,65.10
2022-11-13T19:38:53.737Z,54.67
2022-11-13T19:40:47.468Z,55.50
2022-11-13T19:42:41.835Z,52.57
2022-11-13T19:44:35.290Z,47.47
2022-11-13T19:46:27.330Z,47.57
2022-11-13T19:48:19.096Z,50.60
2022-11-13T19:50:11.515Z,48.17
2022-11-13T19:52:03.360Z,44.83
2022-11-13T19:53:55.741Z,45.93
2022-11-13T19:55:55.103Z,46.50
2022-11-13T19:57:46.523Z,48.27
2022-11-13T19:59:40.395Z,50.67
2022-11-13T20:01:32.922Z,45.63
2022-11-13T20:03:26.053Z,48.23
2022-11-13T20:05:17.556Z,45.03
2022-11-13T20:07:11.272Z,50.13
2022-11-13T20:09:04.203Z,47.83
2022-11-13T20:10:55.558Z,46.67
2022-11-13T20:12:47.232Z,45.87
2022-11-13T20:14:40.358Z,44.63
2022-11-13T20:16:32.171Z,43.93
2022-11-13T20:18:23.613Z,47.50
2022-11-13T20:20:15.285Z,44.03
2022-11-13T20:22:07.150Z,43.23
2022-11-13T20:24:00.601Z,47.73
2022-11-13T20:25:53.811Z,43.97
2022-11-13T20:27:47.468Z,48.30
2022-11-13T20:29:40.835Z,44.10
2022-11-13T20:31:32.562Z,47.23
2022-11-13T20:33:24.107Z,47.00
2022-11-13T20:35:16.151Z,42.93
2022-11-13T20:37:08.016Z,45.17
2022-11-13T20:38:59.374Z,48.17
2022-11-13T20:40:51.261Z,45.63
2022-11-13T20:42:42.900Z,44.70
2022-11-13T20:44:34.516Z,46.73
2022-11-13T20:46:27.301Z,45.50
2022-11-13T20:48:19.340Z,44.03
2022-11-13T20:50:11.727Z,46.37
2022-11-13T20:52:04.850Z,42.83
2022-11-13T20:53:57.059Z,43.83
2022-11-13T20:55:48.519Z,44.73
2022-11-13T20:57:41.203Z,47.87
2022-11-13T20:59:33.048Z,40.20
2022-11-13T21:01:27.346Z,45.67
2022-11-13T21:03:19.049Z,43.80
2022-11-13T21:05:10.604Z,42.17
2022-11-13T21:07:02.499Z,41.17
2022-11-13T21:08:56.230Z,42.30
2022-11-13T21:10:47.781Z,41.33
2022-11-13T21:12:39.351Z,37.43
2022-11-13T21:14:30.716Z,38.13
2022-11-13T21:16:22.810Z,39.93
2022-11-13T21:18:15.766Z,43.20
2022-11-13T21:20:08.656Z,39.27
2022-11-13T21:22:00.021Z,37.87
2022-11-13T21:23:51.404Z,37.20
2022-11-13T21:25:42.873Z,39.23
2022-11-13T21:27:34.326Z,35.07
2022-11-13T21:29:25.957Z,35.57
2022-11-13T21:31:19.320Z,37.07
2022-11-13T21:33:10.769Z,37.70
2022-11-13T21:35:03.485Z,37.67
2022-11-13T21:36:55.183Z,35.13
2022-11-13T21:38:46.682Z,34.87
2022-11-13T21:40:38.254Z,33.87
2022-11-13T21:42:29.981Z,33.43
2022-11-13T21:44:21.465Z,34.63
2022-11-13T21:46:14.326Z,32.80
2022-11-13T21:48:06.371Z,33.27
2022-11-13T21:49:57.952Z,33.83
2022-11-13T21:51:50.655Z,33.83
2022-11-13T21:53:43.461Z,33.07
2022-11-13T21:55:35.145Z,31.60
2022-11-13T21:57:27.096Z,34.73
2022-11-13T21:59:18.604Z,35.47
2022-11-13T22:01:11.899Z,35.23
2022-11-13T22:03:03.685Z,35.37
2022-11-13T22:04:55.166Z,34.70
2022-11-13T22:06:50.863Z,34.67
2022-11-13T22:08:42.580Z,33.97
2022-11-13T22:10:34.342Z,35.73
2022-11-13T22:12:25.909Z,34.37
2022-11-13T22:14:17.788Z,32.53
2022-11-13T22:16:12.227Z,33.63
2022-11-13T22:18:03.884Z,34.10
2022-11-13T22:19:55.346Z,35.10
2022-11-13T22:21:47.748Z,34.97
2022-11-13T22:23:41.127Z,35.23
2022-11-13T22:25:32.703Z,40.67
2022-11-13T22:27:24.085Z,38.17
2022-11-13T22:29:16.554Z,37.70
2022-11-13T22:31:09.337Z,39.63
2022-11-13T22:33:00.750Z,37.00
2022-11-13T22:34:52.395Z,39.67
2022-11-13T22:36:43.764Z,38.63
2022-11-13T22:38:35.178Z,38.93
2022-11-13T22:40:28.077Z,40.73
2022-11-13T22:42:19.826Z,39.37
2022-11-13T22:44:14.433Z,37.63
2022-11-13T22:46:07.535Z,37.57
2022-11-13T22:47:59.288Z,39.63
2022-11-13T22:49:50.915Z,39.20
2022-11-13T22:51:42.816Z,39.63
2022-11-13T22:53:34.784Z,37.50
2022-11-13T22:55:28.089Z,40.70
2022-11-13T22:57:20.021Z,43.33
2022-11-13T22:59:13.874Z,41.00
2022-11-13T23:01:08.076Z,36.80
2022-11-13T23:03:01.698Z,35.43
2022-11-13T23:04:53.526Z,33.43
2022-11-13T23:06:45.698Z,40.47
2022-11-13T23:08:39.278Z,37.33
2022-11-13T23:10:32.669Z,40.87
2022-11-13T23:12:24.407Z,36.43
2022-11-13T23:14:16.999Z,37.33
2022-11-13T23:16:09.116Z,36.80
2022-11-13T23:18:03.492Z,36.07
2022-11-13T23:19:57.682Z,40.63
2022-11-13T23:21:49.280Z,41.20
2022-11-13T23:23:41.453Z,39.33
2022-11-13T23:25:35.552Z,41.20
2022-11-13T23:27:27.239Z,39.63
2022-11-13T23:29:19.259Z,39.13
2022-11-13T23:31:11.050Z,38.40
2022-11-13T23:33:03.020Z,36.67
2022-11-13T23:35:01.633Z,38.07
2022-11-13T23:36:53.187Z,35.87
2022-11-13T23:38:44.878Z,34.33
2022-11-13T23:40:38.202Z,37.83
2022-11-13T23:42:53.662Z,38.80
2022-11-13T23:44:41.474Z,36.47
2022-11-13T23:46:32.889Z,39.00
2022-11-13T23:48:24.456Z,35.10
2022-11-13T23:50:16.287Z,38.27
2022-11-13T23:52:08.005Z,37.07
2022-11-13T23:53:59.624Z,39.73
2022-11-13T23:55:52.686Z,38.57
2022-11-13T23:57:43.977Z,37.03
2022-11-13T23:59:35.446Z,37.47
